Alyeska Resort
Max's Hourly Weather Roundup
ALYESKA_MAX 10/31/2014
Click Here for Graph

        DATE  TIME   Air  Wind  Wind  Wind  BATT   Rel
                    Temp   Spd   Dir  Gust  Volt  Hum%
                      F   MPH   AVG   MPH   AVG   AVG

  10/31/2014 01:00    17     3   261     6 12.80    97
  10/30/2014 24:00    16     2   173     4 12.83    98
  10/30/2014 23:00    16     2   144     4 12.87    97
  10/30/2014 22:00    15     3   113     5 12.92    97
  10/30/2014 21:00    16     2   174     6 12.98    95
  10/30/2014 20:00    17     3   157     6 13.08    93
  10/30/2014 19:00    17     6   161    13 13.25    93
  10/30/2014 18:00    18     5   177     9 13.70    95
  10/30/2014 17:00    22     2   218     5 13.71    92
  10/30/2014 16:00    20     3   187    11 13.72    97
  10/30/2014 15:00    20     5   168     9 13.72   100
  10/30/2014 14:00    20     4   158     7 13.71   100
  10/30/2014 13:00    19     5   162     9 13.73   100
  10/30/2014 12:00    20     7   170    10 13.71   100
  10/30/2014 11:00    21     6   177     9 13.73   100
  10/30/2014 10:00    22     1   252     5 12.83   100
  10/30/2014 09:00    23     1   160     4 12.69   100
  10/30/2014 08:00    23     6   176    10 12.69   100
  10/30/2014 07:00    24     4   181    11 12.70    96
  10/30/2014 06:00    26     1   288     3 12.70    86
  10/30/2014 05:00    26     1   192     3 12.71    87
  10/30/2014 04:00    27     1   164     4 12.72    75
  10/30/2014 03:00    28     1   156     3 12.74    74
  10/30/2014 02:00    28     2   200     4 12.76    74


Click Here for Graph